Check out our new PWSWeather beta!
PWSweather.com
Personal Weather Stations
Station Observations
IONTARIO88
Lincoln, ON L0R

Lincoln, ON L0R

Lat: 43.1763563, Lon: -79.4719525

Elevation: 297

Station Type: Davis Vantage Pro 2 Plus

http://www.beamsvillewx.ca

High Low Average
Temperature 86.2°F30.1°C 67.8°F19.9°C 74.2°F23.4°C
Dew Point 72.5°F22.5°C 62.9°F17.2°C 68.8°F20.4°C
Winds 14.0 mph 22.5 kmh Calm Calm 3.0 mph SW4.8 kmh SW
Wind Gusts 27.0 mph43.5 kmh -- 8.0 mph12.9 kmh
Humidity 93% 61% 84%
Pressure 29.78 in1008.5 mb 29.65 in1004.1 mb -
Precipitation 0.56 in14.2 mm - -
Hour Temp Dew Point Humidity Winds Wind Gusts Pressure Precip Precip Rate Daily Precip Total
12:00 AM 72.7°F22.6°C 68.9°F20.5°C 88% 4.0 mph S6.4 kmh S 9.0 mph14.5 kmh 29.78 in1008.5 mb 0.00 in0.0 mm 0.00 in0.0 mm 0.00 in0.0 mm
12:15 AM 72.5°F22.5°C 68.7°F20.4°C 88% 3.0 mph S4.8 kmh S 8.0 mph12.9 kmh 29.78 in1008.5 mb 0.00 in0.0 mm 0.00 in0.0 mm 0.00 in0.0 mm
12:30 AM 72.5°F22.5°C 68.7°F20.4°C 88% 2.0 mph S3.2 kmh S 8.0 mph12.9 kmh 29.77 in1008.1 mb 0.00 in0.0 mm 0.00 in0.0 mm 0.00 in0.0 mm
12:45 AM 72.7°F22.6°C 68.9°F20.5°C 88% 3.0 mph S4.8 kmh S 10.0 mph16.1 kmh 29.76 in1007.8 mb 0.00 in0.0 mm 0.00 in0.0 mm 0.00 in0.0 mm
01:00 AM 72.5°F22.5°C 68.7°F20.4°C 88% 3.0 mph SSW4.8 kmh SSW 10.0 mph16.1 kmh 29.75 in1007.5 mb 0.00 in0.0 mm 0.00 in0.0 mm 0.00 in0.0 mm
01:15 AM 72.3°F22.4°C 68.6°F20.3°C 88% 3.0 mph S4.8 kmh S 8.0 mph12.9 kmh 29.75 in1007.5 mb 0.00 in0.0 mm 0.00 in0.0 mm 0.00 in0.0 mm
01:30 AM 72.5°F22.5°C 68.7°F20.4°C 88% 2.0 mph S3.2 kmh S 7.0 mph11.3 kmh 29.75 in1007.5 mb 0.00 in0.0 mm 0.00 in0.0 mm 0.00 in0.0 mm
01:45 AM 72.3°F22.4°C 68.2°F20.1°C 87% 1.0 mph SSW1.6 kmh SSW 5.0 mph8.0 kmh 29.75 in1007.5 mb 0.00 in0.0 mm 0.00 in0.0 mm 0.00 in0.0 mm
02:00 AM 72.1°F22.3°C 68.4°F20.2°C 88% 1.0 mph SSW1.6 kmh SSW 6.0 mph9.7 kmh 29.75 in1007.5 mb 0.00 in0.0 mm 0.00 in0.0 mm 0.00 in0.0 mm
02:15 AM 72.0°F22.2°C 68.2°F20.1°C 88% 2.0 mph SSW3.2 kmh SSW 7.0 mph11.3 kmh 29.75 in1007.5 mb 0.00 in0.0 mm 0.00 in0.0 mm 0.00 in0.0 mm
02:30 AM 72.0°F22.2°C 68.2°F20.1°C 88% 1.0 mph SSW1.6 kmh SSW 6.0 mph9.7 kmh 29.74 in1007.1 mb 0.00 in0.0 mm 0.00 in0.0 mm 0.00 in0.0 mm
02:45 AM 72.1°F22.3°C 68.7°F20.4°C 89% 2.0 mph SSW3.2 kmh SSW 6.0 mph9.7 kmh 29.73 in1006.8 mb 0.00 in0.0 mm 0.00 in0.0 mm 0.00 in0.0 mm
03:00 AM 72.3°F22.4°C 68.9°F20.5°C 89% 2.0 mph SSW3.2 kmh SSW 6.0 mph9.7 kmh 29.73 in1006.8 mb 0.00 in0.0 mm 0.00 in0.0 mm 0.00 in0.0 mm
03:15 AM 72.3°F22.4°C 68.9°F20.5°C 89% 2.0 mph S3.2 kmh S 10.0 mph16.1 kmh 29.73 in1006.8 mb 0.00 in0.0 mm 0.00 in0.0 mm 0.00 in0.0 mm
03:30 AM 72.3°F22.4°C 68.9°F20.5°C 89% 1.0 mph S1.6 kmh S 7.0 mph11.3 kmh 29.73 in1006.8 mb 0.00 in0.0 mm 0.00 in0.0 mm 0.00 in0.0 mm
03:45 AM 72.3°F22.4°C 68.9°F20.5°C 89% 2.0 mph SSW3.2 kmh SSW 7.0 mph11.3 kmh 29.73 in1006.8 mb 0.00 in0.0 mm 0.00 in0.0 mm 0.00 in0.0 mm
04:00 AM 72.3°F22.4°C 69.2°F20.7°C 90% 2.0 mph SSW3.2 kmh SSW 7.0 mph11.3 kmh 29.72 in1006.4 mb 0.00 in0.0 mm 0.00 in0.0 mm 0.00 in0.0 mm
04:15 AM 72.3°F22.4°C 69.2°F20.7°C 90% 2.0 mph SSW3.2 kmh SSW 7.0 mph11.3 kmh 29.72 in1006.4 mb 0.00 in0.0 mm 0.00 in0.0 mm 0.00 in0.0 mm
04:30 AM 72.3°F22.4°C 68.9°F20.5°C 89% 3.0 mph S4.8 kmh S 9.0 mph14.5 kmh 29.72 in1006.4 mb 0.00 in0.0 mm 0.00 in0.0 mm 0.00 in0.0 mm
04:45 AM 72.5°F22.5°C 69.1°F20.6°C 89% 3.0 mph SSW4.8 kmh SSW 10.0 mph16.1 kmh 29.72 in1006.4 mb 0.00 in0.0 mm 0.00 in0.0 mm 0.00 in0.0 mm
05:00 AM 72.7°F22.6°C 68.9°F20.5°C 88% 3.0 mph S4.8 kmh S 8.0 mph12.9 kmh 29.71 in1006.1 mb 0.00 in0.0 mm 0.00 in0.0 mm 0.00 in0.0 mm
05:15 AM 72.7°F22.6°C 68.9°F20.5°C 88% 2.0 mph SSW3.2 kmh SSW 8.0 mph12.9 kmh 29.71 in1006.1 mb 0.00 in0.0 mm 0.00 in0.0 mm 0.00 in0.0 mm
05:30 AM 72.5°F22.5°C 68.7°F20.4°C 88% 3.0 mph S4.8 kmh S 7.0 mph11.3 kmh 29.71 in1006.1 mb 0.00 in0.0 mm 0.00 in0.0 mm 0.00 in0.0 mm
05:45 AM 72.5°F22.5°C 68.7°F20.4°C 88% 2.0 mph S3.2 kmh S 7.0 mph11.3 kmh 29.71 in1006.1 mb 0.00 in0.0 mm 0.00 in0.0 mm 0.00 in0.0 mm
06:00 AM 72.5°F22.5°C 68.7°F20.4°C 88% 2.0 mph S3.2 kmh S 10.0 mph16.1 kmh 29.71 in1006.1 mb 0.00 in0.0 mm 0.00 in0.0 mm 0.00 in0.0 mm
06:15 AM 73.0°F22.8°C 68.9°F20.5°C 87% 4.0 mph S6.4 kmh S 10.0 mph16.1 kmh 29.71 in1006.1 mb 0.00 in0.0 mm 0.00 in0.0 mm 0.00 in0.0 mm
06:30 AM 73.2°F22.9°C 69.1°F20.6°C 87% 4.0 mph S6.4 kmh S 9.0 mph14.5 kmh 29.71 in1006.1 mb 0.00 in0.0 mm 0.00 in0.0 mm 0.00 in0.0 mm
06:45 AM 73.9°F23.3°C 69.8°F21.0°C 87% 3.0 mph SSW4.8 kmh SSW 8.0 mph12.9 kmh 29.71 in1006.1 mb 0.00 in0.0 mm 0.00 in0.0 mm 0.00 in0.0 mm
07:00 AM 74.7°F23.7°C 70.2°F21.2°C 86% 4.0 mph S6.4 kmh S 9.0 mph14.5 kmh 29.71 in1006.1 mb 0.00 in0.0 mm 0.00 in0.0 mm 0.00 in0.0 mm
07:15 AM 75.6°F24.2°C 70.4°F21.3°C 84% 5.0 mph SSW8.0 kmh SSW 14.0 mph22.5 kmh 29.71 in1006.1 mb 0.00 in0.0 mm 0.00 in0.0 mm 0.00 in0.0 mm
07:30 AM 76.8°F24.9°C 70.5°F21.4°C 81% 5.0 mph SSW8.0 kmh SSW 14.0 mph22.5 kmh 29.71 in1006.1 mb 0.00 in0.0 mm 0.00 in0.0 mm 0.00 in0.0 mm
07:45 AM 77.4°F25.2°C 70.3°F21.3°C 79% 4.0 mph SSW6.4 kmh SSW 13.0 mph20.9 kmh 29.71 in1006.1 mb 0.00 in0.0 mm 0.00 in0.0 mm 0.00 in0.0 mm
08:00 AM 77.5°F25.3°C 70.9°F21.6°C 80% 5.0 mph S8.0 kmh S 11.0 mph17.7 kmh 29.71 in1006.1 mb 0.00 in0.0 mm 0.00 in0.0 mm 0.00 in0.0 mm
08:15 AM 78.1°F25.6°C 71.0°F21.7°C 79% 3.0 mph S4.8 kmh S 9.0 mph14.5 kmh 29.71 in1006.1 mb 0.00 in0.0 mm 0.00 in0.0 mm 0.00 in0.0 mm
08:30 AM 79.0°F26.1°C 71.5°F21.9°C 78% 3.0 mph S4.8 kmh S 12.0 mph19.3 kmh 29.71 in1006.1 mb 0.00 in0.0 mm 0.00 in0.0 mm 0.00 in0.0 mm
08:45 AM 79.3°F26.3°C 71.5°F21.9°C 77% 4.0 mph S6.4 kmh S 11.0 mph17.7 kmh 29.71 in1006.1 mb 0.00 in0.0 mm 0.00 in0.0 mm 0.00 in0.0 mm
09:00 AM 80.4°F26.9°C 71.8°F22.1°C 75% 4.0 mph SSW6.4 kmh SSW 13.0 mph20.9 kmh 29.70 in1005.8 mb 0.00 in0.0 mm 0.00 in0.0 mm 0.00 in0.0 mm
09:15 AM 82.2°F27.9°C 71.9°F22.2°C 71% 5.0 mph SSW8.0 kmh SSW 14.0 mph22.5 kmh 29.70 in1005.8 mb 0.00 in0.0 mm 0.00 in0.0 mm 0.00 in0.0 mm
09:30 AM 83.1°F28.4°C 71.9°F22.2°C 69% 5.0 mph S8.0 kmh S 12.0 mph19.3 kmh 29.70 in1005.8 mb 0.00 in0.0 mm 0.00 in0.0 mm 0.00 in0.0 mm
09:45 AM 83.8°F28.8°C 71.7°F22.1°C 67% 6.0 mph S9.7 kmh S 12.0 mph19.3 kmh 29.69 in1005.4 mb 0.00 in0.0 mm 0.00 in0.0 mm 0.00 in0.0 mm
10:00 AM 85.1°F29.5°C 72.5°F22.5°C 66% 6.0 mph SSW9.7 kmh SSW 14.0 mph22.5 kmh 29.70 in1005.8 mb 0.00 in0.0 mm 0.00 in0.0 mm 0.00 in0.0 mm
10:15 AM 86.2°F30.1°C 72.1°F22.3°C 63% 6.0 mph SSW9.7 kmh SSW 18.0 mph29.0 kmh 29.70 in1005.8 mb 0.00 in0.0 mm 0.00 in0.0 mm 0.00 in0.0 mm
10:30 AM 77.4°F25.2°C 62.9°F17.2°C 61% 14.0 mph NW22.5 kmh NW 27.0 mph43.5 kmh 29.73 in1006.8 mb 0.00 in0.0 mm 0.00 in0.0 mm 0.00 in0.0 mm
10:45 AM 71.8°F22.1°C 64.9°F18.3°C 79% 9.0 mph WNW14.5 kmh WNW 17.0 mph27.4 kmh 29.74 in1007.1 mb 0.03 in0.8 mm 0.12 in3.0 mm 0.03 in0.8 mm
11:00 AM 68.2°F20.1°C 63.8°F17.7°C 86% 6.0 mph SW9.7 kmh SW 20.0 mph32.2 kmh 29.73 in1006.8 mb 0.13 in3.3 mm 0.13 in3.3 mm 0.13 in3.3 mm
11:15 AM 67.8°F19.9°C 64.1°F17.8°C 88% 6.0 mph SW9.7 kmh SW 15.0 mph24.1 kmh 29.71 in1006.1 mb 0.17 in4.3 mm 0.16 in4.1 mm 0.17 in4.3 mm
11:30 AM 68.9°F20.5°C 64.5°F18.1°C 86% 4.0 mph SSW6.4 kmh SSW 9.0 mph14.5 kmh 29.71 in1006.1 mb 0.17 in4.3 mm 0.00 in0.0 mm 0.17 in4.3 mm
11:45 AM 71.4°F21.9°C 67.0°F19.4°C 86% 5.0 mph SW8.0 kmh SW 14.0 mph22.5 kmh 29.71 in1006.1 mb 0.14 in3.6 mm 0.00 in0.0 mm 0.17 in4.3 mm
12:00 PM 72.0°F22.2°C 66.5°F19.2°C 83% 4.0 mph SW6.4 kmh SW 13.0 mph20.9 kmh 29.71 in1006.1 mb 0.04 in1.0 mm 0.00 in0.0 mm 0.17 in4.3 mm
12:15 PM 71.8°F22.1°C 67.4°F19.7°C 86% 4.0 mph SW6.4 kmh SW 9.0 mph14.5 kmh 29.71 in1006.1 mb 0.00 in0.0 mm 0.00 in0.0 mm 0.17 in4.3 mm
12:30 PM 72.3°F22.4°C 67.9°F19.9°C 86% 3.0 mph SSW4.8 kmh SSW 8.0 mph12.9 kmh 29.70 in1005.8 mb 0.00 in0.0 mm 0.00 in0.0 mm 0.17 in4.3 mm
12:45 PM 74.1°F23.4°C 69.0°F20.6°C 84% 2.0 mph SSW3.2 kmh SSW 6.0 mph9.7 kmh 29.70 in1005.8 mb 0.00 in0.0 mm 0.00 in0.0 mm 0.17 in4.3 mm
01:00 PM 75.2°F24.0°C 68.6°F20.3°C 80% 3.0 mph SSW4.8 kmh SSW 8.0 mph12.9 kmh 29.69 in1005.4 mb 0.00 in0.0 mm 0.00 in0.0 mm 0.17 in4.3 mm
01:15 PM 76.5°F24.7°C 69.5°F20.8°C 79% 3.0 mph S4.8 kmh S 9.0 mph14.5 kmh 29.69 in1005.4 mb 0.00 in0.0 mm 0.00 in0.0 mm 0.17 in4.3 mm
01:30 PM 77.5°F25.3°C 69.8°F21.0°C 77% 2.0 mph S3.2 kmh S 6.0 mph9.7 kmh 29.68 in1005.1 mb 0.00 in0.0 mm 0.00 in0.0 mm 0.17 in4.3 mm
01:45 PM 79.0°F26.1°C 70.0°F21.1°C 74% 2.0 mph S3.2 kmh S 8.0 mph12.9 kmh 29.68 in1005.1 mb 0.00 in0.0 mm 0.00 in0.0 mm 0.17 in4.3 mm
02:00 PM 80.1°F26.7°C 71.0°F21.7°C 74% 2.0 mph S3.2 kmh S 11.0 mph17.7 kmh 29.67 in1004.7 mb 0.00 in0.0 mm 0.00 in0.0 mm 0.17 in4.3 mm
02:15 PM 81.9°F27.7°C 71.1°F21.7°C 70% 3.0 mph SSW4.8 kmh SSW 10.0 mph16.1 kmh 29.66 in1004.4 mb 0.00 in0.0 mm 0.00 in0.0 mm 0.17 in4.3 mm
02:30 PM 83.5°F28.6°C 70.5°F21.4°C 65% 3.0 mph S4.8 kmh S 11.0 mph17.7 kmh 29.65 in1004.1 mb 0.00 in0.0 mm 0.00 in0.0 mm 0.17 in4.3 mm
02:45 PM 84.2°F29.0°C 70.7°F21.5°C 64% 3.0 mph SSW4.8 kmh SSW 9.0 mph14.5 kmh 29.65 in1004.1 mb 0.00 in0.0 mm 0.00 in0.0 mm 0.17 in4.3 mm
03:00 PM 84.9°F29.4°C 71.4°F21.9°C 64% 3.0 mph S4.8 kmh S 15.0 mph24.1 kmh 29.65 in1004.1 mb 0.00 in0.0 mm 0.00 in0.0 mm 0.17 in4.3 mm
03:15 PM 84.6°F29.2°C 70.6°F21.4°C 63% 3.0 mph SSW4.8 kmh SSW 9.0 mph14.5 kmh 29.65 in1004.1 mb 0.00 in0.0 mm 0.00 in0.0 mm 0.17 in4.3 mm
03:30 PM 84.6°F29.2°C 71.0°F21.7°C 64% 4.0 mph SW6.4 kmh SW 10.0 mph16.1 kmh 29.67 in1004.7 mb 0.00 in0.0 mm 0.00 in0.0 mm 0.17 in4.3 mm
03:45 PM 83.8°F28.8°C 69.4°F20.8°C 62% 5.0 mph SSW8.0 kmh SSW 11.0 mph17.7 kmh 29.66 in1004.4 mb 0.00 in0.0 mm 0.00 in0.0 mm 0.17 in4.3 mm
04:00 PM 82.2°F27.9°C 71.9°F22.2°C 71% 1.0 mph SSW1.6 kmh SSW 4.0 mph6.4 kmh 29.66 in1004.4 mb 0.00 in0.0 mm 0.00 in0.0 mm 0.17 in4.3 mm
04:15 PM 77.2°F25.1°C 69.0°F20.6°C 76% 3.0 mph N4.8 kmh N 6.0 mph9.7 kmh 29.67 in1004.7 mb 0.00 in0.0 mm 0.00 in0.0 mm 0.17 in4.3 mm
04:30 PM 75.7°F24.3°C 68.4°F20.2°C 78% 1.0 mph N1.6 kmh N 5.0 mph8.0 kmh 29.67 in1004.7 mb 0.00 in0.0 mm 0.00 in0.0 mm 0.17 in4.3 mm
04:45 PM 74.8°F23.8°C 69.7°F20.9°C 84% Calm Calm 5.0 mph8.0 kmh 29.69 in1005.4 mb 0.01 in0.3 mm 0.04 in1.0 mm 0.18 in4.6 mm
05:00 PM 72.3°F22.4°C 67.9°F19.9°C 86% 2.0 mph NNW3.2 kmh NNW 8.0 mph12.9 kmh 29.69 in1005.4 mb 0.17 in4.3 mm 0.21 in5.3 mm 0.34 in8.6 mm
05:15 PM 71.1°F21.7°C 68.0°F20.0°C 90% Calm Calm 1.0 mph1.6 kmh 29.69 in1005.4 mb 0.17 in4.3 mm 0.00 in0.0 mm 0.35 in8.9 mm
05:30 PM 71.1°F21.7°C 68.3°F20.2°C 91% Calm Calm -- 29.69 in1005.4 mb 0.19 in4.8 mm 0.08 in2.0 mm 0.36 in9.1 mm
05:45 PM 70.9°F21.6°C 68.1°F20.1°C 91% Calm Calm 3.0 mph4.8 kmh 29.70 in1005.8 mb 0.24 in6.1 mm 0.20 in5.1 mm 0.42 in10.7 mm
06:00 PM 70.9°F21.6°C 68.4°F20.2°C 92% 5.0 mph NW8.0 kmh NW 12.0 mph19.3 kmh 29.71 in1006.1 mb 0.14 in3.6 mm 0.00 in0.0 mm 0.48 in12.2 mm
06:15 PM 69.3°F20.7°C 66.8°F19.3°C 92% 3.0 mph NNW4.8 kmh NNW 8.0 mph12.9 kmh 29.71 in1006.1 mb 0.20 in5.1 mm 0.24 in6.1 mm 0.55 in14.0 mm
06:30 PM 68.9°F20.5°C 66.5°F19.2°C 92% Calm Calm -- 29.71 in1006.1 mb 0.20 in5.1 mm 0.00 in0.0 mm 0.56 in14.2 mm
06:45 PM 69.1°F20.6°C 66.7°F19.3°C 92% Calm Calm -- 29.70 in1005.8 mb 0.14 in3.6 mm 0.00 in0.0 mm 0.56 in14.2 mm
07:00 PM 69.3°F20.7°C 67.1°F19.5°C 93% Calm Calm 2.0 mph3.2 kmh 29.70 in1005.8 mb 0.07 in1.8 mm 0.00 in0.0 mm 0.56 in14.2 mm
07:15 PM 69.6°F20.9°C 67.2°F19.6°C 92% Calm Calm 1.0 mph1.6 kmh 29.70 in1005.8 mb 0.01 in0.3 mm 0.00 in0.0 mm 0.56 in14.2 mm
07:30 PM 69.8°F21.0°C 67.4°F19.7°C 92% 1.0 mph NNW1.6 kmh NNW 4.0 mph6.4 kmh 29.70 in1005.8 mb 0.00 in0.0 mm 0.00 in0.0 mm 0.56 in14.2 mm
07:45 PM 69.8°F21.0°C 67.7°F19.8°C 93% Calm Calm 3.0 mph4.8 kmh 29.70 in1005.8 mb 0.00 in0.0 mm 0.00 in0.0 mm 0.56 in14.2 mm
08:00 PM 70.2°F21.2°C 68.0°F20.0°C 93% 1.0 mph WNW1.6 kmh WNW 5.0 mph8.0 kmh 29.70 in1005.8 mb 0.00 in0.0 mm 0.00 in0.0 mm 0.56 in14.2 mm
08:15 PM 70.2°F21.2°C 67.7°F19.8°C 92% 1.0 mph S1.6 kmh S 4.0 mph6.4 kmh 29.70 in1005.8 mb 0.00 in0.0 mm 0.00 in0.0 mm 0.56 in14.2 mm
08:30 PM 70.3°F21.3°C 67.9°F19.9°C 92% 1.0 mph S1.6 kmh S 5.0 mph8.0 kmh 29.70 in1005.8 mb 0.00 in0.0 mm 0.00 in0.0 mm 0.56 in14.2 mm
08:45 PM 70.5°F21.4°C 68.1°F20.1°C 92% 1.0 mph S1.6 kmh S 4.0 mph6.4 kmh 29.70 in1005.8 mb 0.00 in0.0 mm 0.00 in0.0 mm 0.56 in14.2 mm
09:00 PM 70.5°F21.4°C 68.1°F20.1°C 92% 1.0 mph S1.6 kmh S 4.0 mph6.4 kmh 29.70 in1005.8 mb 0.00 in0.0 mm 0.00 in0.0 mm 0.56 in14.2 mm
09:15 PM 70.7°F21.5°C 68.3°F20.2°C 92% 1.0 mph S1.6 kmh S 4.0 mph6.4 kmh 29.70 in1005.8 mb 0.00 in0.0 mm 0.00 in0.0 mm 0.56 in14.2 mm
09:30 PM 71.1°F21.7°C 68.6°F20.3°C 92% 3.0 mph S4.8 kmh S 7.0 mph11.3 kmh 29.70 in1005.8 mb 0.00 in0.0 mm 0.00 in0.0 mm 0.56 in14.2 mm
09:45 PM 70.9°F21.6°C 68.4°F20.2°C 92% 3.0 mph S4.8 kmh S 5.0 mph8.0 kmh 29.70 in1005.8 mb 0.00 in0.0 mm 0.00 in0.0 mm 0.56 in14.2 mm
10:00 PM 70.9°F21.6°C 68.4°F20.2°C 92% 3.0 mph S4.8 kmh S 7.0 mph11.3 kmh 29.70 in1005.8 mb 0.00 in0.0 mm 0.00 in0.0 mm 0.56 in14.2 mm
10:15 PM 70.9°F21.6°C 68.4°F20.2°C 92% 2.0 mph S3.2 kmh S 7.0 mph11.3 kmh 29.71 in1006.1 mb 0.00 in0.0 mm 0.00 in0.0 mm 0.56 in14.2 mm
10:30 PM 70.9°F21.6°C 68.4°F20.2°C 92% 1.0 mph S1.6 kmh S 4.0 mph6.4 kmh 29.70 in1005.8 mb 0.00 in0.0 mm 0.00 in0.0 mm 0.56 in14.2 mm
10:45 PM 70.9°F21.6°C 68.4°F20.2°C 92% 1.0 mph S1.6 kmh S 5.0 mph8.0 kmh 29.71 in1006.1 mb 0.00 in0.0 mm 0.00 in0.0 mm 0.56 in14.2 mm
11:00 PM 70.9°F21.6°C 68.4°F20.2°C 92% Calm Calm 5.0 mph8.0 kmh 29.71 in1006.1 mb 0.00 in0.0 mm 0.00 in0.0 mm 0.47 in11.9 mm
11:15 PM 70.7°F21.5°C 68.3°F20.2°C 92% 2.0 mph S3.2 kmh S 5.0 mph8.0 kmh 29.71 in1006.1 mb 0.00 in0.0 mm 0.00 in0.0 mm 0.47 in11.9 mm
11:30 PM 70.5°F21.4°C 68.1°F20.1°C 92% 1.0 mph S1.6 kmh S 3.0 mph4.8 kmh 29.71 in1006.1 mb 0.00 in0.0 mm 0.00 in0.0 mm 0.47 in11.9 mm
11:45 PM 70.5°F21.4°C 68.1°F20.1°C 92% 1.0 mph S1.6 kmh S 5.0 mph8.0 kmh 29.71 in1006.1 mb 0.00 in0.0 mm 0.00 in0.0 mm 0.47 in11.9 mm